createdAt,value
2023-02-20T00:00:26.281Z,2.77
2023-02-20T00:02:52.960Z,2.93
2023-02-20T00:05:19.869Z,3.00
2023-02-20T00:07:46.644Z,2.90
2023-02-20T00:10:13.789Z,3.00
2023-02-20T00:12:40.406Z,3.01
2023-02-20T00:15:07.730Z,2.94
2023-02-20T00:17:36.033Z,2.92
2023-02-20T00:20:02.949Z,2.99
2023-02-20T00:22:29.510Z,2.97
2023-02-20T00:24:55.997Z,3.15
2023-02-20T00:27:22.691Z,3.09
2023-02-20T00:29:49.495Z,3.11
2023-02-20T00:32:16.007Z,3.04
2023-02-20T00:34:42.916Z,3.15
2023-02-20T00:37:10.001Z,3.21
2023-02-20T00:39:37.111Z,3.06
2023-02-20T00:42:04.043Z,3.17
2023-02-20T00:44:30.656Z,3.20
2023-02-20T00:46:57.254Z,3.23
2023-02-20T00:49:24.014Z,3.27
2023-02-20T00:51:50.999Z,3.32
2023-02-20T00:54:17.761Z,3.36
2023-02-20T00:56:44.330Z,3.46
2023-02-20T00:59:11.495Z,3.42
2023-02-20T01:01:38.571Z,3.28
2023-02-20T01:04:05.289Z,3.40
2023-02-20T01:06:31.892Z,3.44
2023-02-20T01:08:58.356Z,3.50
2023-02-20T01:11:24.789Z,3.40
2023-02-20T01:13:51.256Z,3.46
2023-02-20T01:16:17.941Z,3.43
2023-02-20T01:18:44.716Z,3.63
2023-02-20T01:21:11.216Z,3.71
2023-02-20T01:23:37.708Z,3.70
2023-02-20T01:26:04.382Z,3.75
2023-02-20T01:28:30.931Z,3.75
2023-02-20T01:30:57.428Z,3.85
2023-02-20T01:33:23.942Z,3.92
2023-02-20T01:35:50.508Z,3.81
2023-02-20T01:38:17.063Z,3.78
2023-02-20T01:40:49.007Z,3.85
2023-02-20T01:43:16.188Z,3.86
2023-02-20T01:45:43.170Z,3.97
2023-02-20T01:48:20.610Z,4.10
2023-02-20T01:50:47.548Z,4.03
2023-02-20T01:53:16.998Z,4.05
2023-02-20T01:55:46.907Z,4.07
2023-02-20T01:58:24.282Z,4.07
2023-02-20T02:00:51.039Z,4.00
2023-02-20T02:03:25.832Z,4.03
2023-02-20T02:05:58.181Z,4.03
2023-02-20T02:08:25.869Z,4.06
2023-02-20T02:11:07.296Z,4.06
2023-02-20T02:13:35.861Z,4.17
2023-02-20T02:16:25.884Z,4.28
2023-02-20T02:19:04.684Z,4.22
2023-02-20T02:22:03.054Z,4.25
2023-02-20T02:25:00.756Z,4.17
2023-02-20T02:27:45.341Z,4.41
2023-02-20T02:30:40.377Z,4.37
2023-02-20T02:33:29.108Z,4.34
2023-02-20T02:36:16.781Z,4.38
2023-02-20T02:38:48.625Z,4.40
2023-02-20T02:41:42.259Z,4.48
2023-02-20T02:44:32.051Z,4.50
2023-02-20T02:47:02.812Z,4.48
2023-02-20T02:49:37.719Z,4.54
2023-02-20T02:52:05.045Z,4.58
2023-02-20T02:54:31.816Z,4.67
2023-02-20T02:57:24.931Z,4.66
2023-02-20T02:59:56.477Z,4.71
2023-02-20T03:02:23.984Z,4.76
2023-02-20T03:04:52.142Z,4.84
2023-02-20T03:07:19.899Z,4.89
2023-02-20T03:09:49.368Z,4.91
2023-02-20T03:12:16.188Z,4.94
2023-02-20T03:15:26.533Z,5.05
2023-02-20T03:18:10.602Z,5.13
2023-02-20T03:20:44.606Z,5.18
2023-02-20T03:23:15.601Z,5.20
2023-02-20T03:25:50.288Z,5.23
2023-02-20T03:28:26.676Z,5.30
2023-02-20T03:31:04.972Z,5.35
2023-02-20T03:33:55.240Z,5.38
2023-02-20T03:36:46.644Z,5.44
2023-02-20T03:39:37.246Z,5.48
2023-02-20T03:42:25.464Z,5.48
2023-02-20T03:44:52.348Z,5.50
2023-02-20T03:47:20.180Z,5.57
2023-02-20T03:50:06.375Z,5.53
2023-02-20T03:52:32.926Z,5.56
2023-02-20T03:54:59.520Z,5.54
2023-02-20T03:57:34.384Z,5.58
2023-02-20T04:00:05.951Z,5.62
2023-02-20T04:02:42.234Z,5.71
2023-02-20T04:05:14.359Z,5.75
2023-02-20T04:08:03.883Z,5.73
2023-02-20T04:10:34.963Z,5.68
2023-02-20T04:13:02.279Z,5.68
2023-02-20T04:15:28.880Z,5.64
2023-02-20T04:17:59.632Z,5.60
2023-02-20T04:20:26.443Z,5.52
2023-02-20T04:22:56.128Z,5.49
2023-02-20T04:25:29.898Z,5.48
2023-02-20T04:27:56.699Z,5.56
2023-02-20T04:30:23.207Z,5.66
2023-02-20T04:32:49.643Z,5.67
2023-02-20T04:35:19.090Z,5.76
2023-02-20T04:37:45.785Z,5.79
2023-02-20T04:40:14.340Z,5.82
2023-02-20T04:42:40.784Z,5.94
2023-02-20T04:45:07.597Z,5.97
2023-02-20T04:47:34.418Z,6.02
2023-02-20T04:50:00.915Z,6.10
2023-02-20T04:52:27.329Z,6.09
2023-02-20T04:54:53.968Z,6.14
2023-02-20T04:57:20.498Z,6.22
2023-02-20T04:59:46.961Z,6.22
2023-02-20T05:02:14.156Z,6.17
2023-02-20T05:04:40.719Z,6.22
2023-02-20T05:07:07.189Z,6.18
2023-02-20T05:09:33.620Z,6.22
2023-02-20T05:12:00.121Z,6.22
2023-02-20T05:14:26.628Z,6.24
2023-02-20T05:16:53.746Z,6.26
2023-02-20T05:19:20.326Z,6.25
2023-02-20T05:22:05.549Z,6.33
2023-02-20T05:24:32.252Z,6.31
2023-02-20T05:26:59.244Z,6.36
2023-02-20T05:29:25.765Z,6.41
2023-02-20T05:31:52.398Z,6.38
2023-02-20T05:34:21.380Z,6.45
2023-02-20T05:36:48.501Z,6.45
2023-02-20T05:39:15.018Z,6.45
2023-02-20T05:41:41.635Z,6.49
2023-02-20T05:44:08.362Z,6.48
2023-02-20T05:46:42.429Z,6.50
2023-02-20T05:49:10.060Z,6.54
2023-02-20T05:51:37.012Z,6.49
2023-02-20T05:54:04.468Z,6.43
2023-02-20T05:56:32.885Z,6.45
2023-02-20T05:59:00.009Z,6.42
2023-02-20T06:01:28.591Z,6.43
2023-02-20T06:03:55.152Z,6.40
2023-02-20T06:06:22.254Z,6.40
2023-02-20T06:08:48.885Z,6.45
2023-02-20T06:11:16.226Z,6.43
2023-02-20T06:13:44.120Z,6.48
2023-02-20T06:16:11.982Z,6.51
2023-02-20T06:18:40.675Z,6.57
2023-02-20T06:21:08.997Z,6.66
2023-02-20T06:23:39.088Z,6.73
2023-02-20T06:26:06.906Z,6.77
2023-02-20T06:28:33.957Z,6.86
2023-02-20T06:31:01.986Z,6.88
2023-02-20T06:33:29.545Z,6.94
2023-02-20T06:35:56.328Z,7.00
2023-02-20T06:38:23.030Z,7.08
2023-02-20T06:40:49.606Z,7.15
2023-02-20T06:43:16.088Z,7.19
2023-02-20T06:45:42.857Z,7.19
2023-02-20T06:48:09.465Z,7.20
2023-02-20T06:50:35.880Z,7.17
2023-02-20T06:53:02.300Z,7.22
2023-02-20T06:55:28.837Z,7.23
2023-02-20T06:57:55.310Z,7.24
2023-02-20T07:00:22.459Z,7.23
2023-02-20T07:02:49.011Z,7.26
2023-02-20T07:05:15.723Z,7.31
2023-02-20T07:07:42.228Z,7.30
2023-02-20T07:10:09.008Z,7.36
2023-02-20T07:12:39.608Z,7.39
2023-02-20T07:15:07.241Z,7.45
2023-02-20T07:17:34.071Z,7.60
2023-02-20T07:20:00.572Z,7.56
2023-02-20T07:22:27.010Z,7.59
2023-02-20T07:24:54.162Z,7.58
2023-02-20T07:27:21.035Z,7.67
2023-02-20T07:29:48.805Z,7.78
2023-02-20T07:32:20.250Z,7.77
2023-02-20T07:35:02.407Z,7.78
2023-02-20T07:37:29.671Z,7.90
2023-02-20T07:39:56.101Z,7.79
2023-02-20T07:42:22.794Z,7.82
2023-02-20T07:44:49.612Z,7.94
2023-02-20T07:47:16.633Z,7.99
2023-02-20T07:49:43.726Z,8.09
2023-02-20T07:52:10.209Z,8.12
2023-02-20T07:54:36.648Z,8.22
2023-02-20T07:57:03.638Z,8.51
2023-02-20T07:59:30.262Z,8.81
2023-02-20T08:01:56.883Z,8.69
2023-02-20T08:04:23.604Z,8.64
2023-02-20T08:06:50.041Z,8.50
2023-02-20T08:09:16.475Z,8.56
2023-02-20T08:11:43.023Z,8.33
2023-02-20T08:14:09.478Z,8.38
2023-02-20T08:16:36.085Z,8.66
2023-02-20T08:19:02.659Z,8.83
2023-02-20T08:21:29.424Z,9.47
2023-02-20T08:23:56.176Z,10.64
2023-02-20T08:26:22.691Z,11.63
2023-02-20T08:28:50.042Z,11.16
2023-02-20T08:31:30.874Z,10.58
2023-02-20T08:33:58.525Z,10.75
2023-02-20T08:36:24.997Z,12.36
2023-02-20T08:38:51.563Z,12.77
2023-02-20T08:41:18.104Z,12.70
2023-02-20T08:43:44.777Z,13.04
2023-02-20T08:46:11.829Z,12.50
2023-02-20T08:48:39.061Z,12.38
2023-02-20T08:51:06.796Z,11.66
2023-02-20T08:53:34.454Z,11.40
2023-02-20T08:56:01.374Z,11.22
2023-02-20T08:58:27.995Z,11.26
2023-02-20T09:00:55.593Z,11.65
2023-02-20T09:03:22.175Z,11.39
2023-02-20T09:05:49.016Z,11.60
2023-02-20T09:08:15.874Z,11.82
2023-02-20T09:10:42.573Z,11.65
2023-02-20T09:13:09.290Z,11.41
2023-02-20T09:15:39.708Z,11.48
2023-02-20T09:18:12.395Z,11.26
2023-02-20T09:20:39.238Z,11.36
2023-02-20T09:23:06.695Z,11.20
2023-02-20T09:25:33.501Z,11.16
2023-02-20T09:27:59.935Z,11.39
2023-02-20T09:30:27.028Z,11.30
2023-02-20T09:32:54.422Z,11.82
2023-02-20T09:35:25.323Z,11.74
2023-02-20T09:37:52.363Z,11.61
2023-02-20T09:40:25.321Z,11.74
2023-02-20T09:43:07.659Z,11.74
2023-02-20T09:45:36.578Z,11.40
2023-02-20T09:48:09.586Z,11.18
2023-02-20T09:50:40.926Z,11.20
2023-02-20T09:53:27.918Z,11.38
2023-02-20T09:55:55.816Z,11.49
2023-02-20T09:58:33.526Z,11.91
2023-02-20T10:01:01.528Z,11.63
2023-02-20T10:03:40.969Z,11.75
2023-02-20T10:06:16.397Z,11.78
2023-02-20T10:08:43.442Z,11.85
2023-02-20T10:11:19.508Z,11.68
2023-02-20T10:14:02.835Z,11.61
2023-02-20T10:16:56.006Z,11.54
2023-02-20T10:19:41.962Z,11.73
2023-02-20T10:22:22.026Z,11.79
2023-02-20T10:24:53.913Z,11.81
2023-02-20T10:27:44.015Z,11.77
2023-02-20T10:30:12.496Z,11.83
2023-02-20T10:32:52.597Z,11.79
2023-02-20T10:35:23.991Z,11.81
2023-02-20T10:37:58.974Z,11.69
2023-02-20T10:40:34.332Z,11.76
2023-02-20T10:43:28.110Z,11.75
2023-02-20T10:46:01.563Z,11.62
2023-02-20T10:48:30.575Z,11.76
2023-02-20T10:51:15.815Z,11.87
2023-02-20T10:53:49.684Z,11.94
2023-02-20T10:56:26.532Z,11.81
2023-02-20T10:59:04.176Z,11.95
2023-02-20T11:01:31.176Z,12.03
2023-02-20T11:04:06.805Z,12.23
2023-02-20T11:06:38.504Z,12.37
2023-02-20T11:09:05.251Z,12.18
2023-02-20T11:11:35.594Z,12.20
2023-02-20T11:14:37.996Z,12.14
2023-02-20T11:17:15.280Z,12.34
2023-02-20T11:19:44.543Z,12.33
2023-02-20T11:22:11.893Z,12.38
2023-02-20T11:24:40.641Z,12.64
2023-02-20T11:27:09.967Z,12.68
2023-02-20T11:30:11.891Z,12.63
2023-02-20T11:32:39.497Z,12.98
2023-02-20T11:35:23.236Z,13.31
2023-02-20T11:38:11.738Z,13.80
2023-02-20T11:40:38.185Z,14.08
2023-02-20T11:43:38.474Z,14.23
2023-02-20T11:46:16.882Z,13.87
2023-02-20T11:49:07.668Z,13.63
2023-02-20T11:51:34.086Z,13.34
2023-02-20T11:54:17.687Z,13.32
2023-02-20T11:56:54.617Z,13.38
2023-02-20T11:59:36.530Z,13.52
2023-02-20T12:02:18.303Z,13.56
2023-02-20T12:05:01.646Z,13.54
2023-02-20T12:07:51.766Z,13.20
2023-02-20T12:10:38.389Z,13.33
2023-02-20T12:13:06.247Z,13.49
2023-02-20T12:15:32.790Z,13.74
2023-02-20T12:18:09.639Z,14.41
2023-02-20T12:20:37.880Z,14.80
2023-02-20T12:23:05.857Z,14.73
2023-02-20T12:25:49.660Z,15.51
2023-02-20T12:28:27.624Z,15.85
2023-02-20T12:31:00.530Z,14.88
2023-02-20T12:34:03.181Z,15.30
2023-02-20T12:36:47.408Z,14.95
2023-02-20T12:39:25.184Z,15.18
2023-02-20T12:42:03.774Z,15.12
2023-02-20T12:44:53.686Z,14.94
2023-02-20T12:47:34.955Z,14.70
2023-02-20T12:50:17.319Z,14.38
2023-02-20T12:53:10.963Z,13.78
2023-02-20T12:55:56.225Z,13.64
2023-02-20T12:58:28.715Z,13.50
2023-02-20T13:01:01.560Z,13.47
2023-02-20T13:03:31.215Z,13.28
2023-02-20T13:05:57.875Z,13.48
2023-02-20T13:08:33.254Z,13.77
2023-02-20T13:11:01.745Z,13.73
2023-02-20T13:13:48.132Z,13.61
2023-02-20T13:16:21.754Z,13.78
2023-02-20T13:18:51.234Z,13.87
2023-02-20T13:21:22.750Z,13.97
2023-02-20T13:23:52.989Z,14.13
2023-02-20T13:26:34.596Z,14.25
2023-02-20T13:29:18.092Z,14.59
2023-02-20T13:31:50.403Z,14.96
2023-02-20T13:34:16.889Z,14.46
2023-02-20T13:36:45.053Z,14.40
2023-02-20T13:39:35.475Z,14.24
2023-02-20T13:42:06.879Z,13.94
2023-02-20T13:44:36.564Z,13.93
2023-02-20T13:47:22.231Z,13.96
2023-02-20T13:49:57.400Z,13.83
2023-02-20T13:52:42.191Z,13.55
2023-02-20T13:55:11.804Z,13.65
2023-02-20T13:57:44.328Z,13.80
2023-02-20T14:00:36.903Z,13.86
2023-02-20T14:03:23.799Z,13.84
2023-02-20T14:06:05.274Z,13.63
2023-02-20T14:08:32.107Z,13.70
2023-02-20T14:11:31.869Z,13.73
2023-02-20T14:13:59.085Z,13.81
2023-02-20T14:16:39.071Z,13.79
2023-02-20T14:19:09.410Z,13.64
2023-02-20T14:21:36.522Z,13.47
2023-02-20T14:24:23.996Z,13.48
2023-02-20T14:26:56.200Z,13.49
2023-02-20T14:29:24.253Z,13.45
2023-02-20T14:31:52.170Z,13.42
2023-02-20T14:34:49.795Z,13.43
2023-02-20T14:37:41.214Z,13.65
2023-02-20T14:40:19.183Z,13.52
2023-02-20T14:42:46.335Z,13.41
2023-02-20T14:45:21.059Z,13.31
2023-02-20T14:47:51.610Z,13.31
2023-02-20T14:50:22.856Z,13.28
2023-02-20T14:53:01.671Z,13.23
2023-02-20T14:55:28.236Z,13.28
2023-02-20T14:57:54.642Z,13.21
2023-02-20T15:00:21.552Z,13.23
2023-02-20T15:02:50.959Z,13.13
2023-02-20T15:05:25.621Z,13.11
2023-02-20T15:07:52.304Z,13.10
2023-02-20T15:10:52.585Z,12.99
2023-02-20T15:13:22.757Z,12.88
2023-02-20T15:15:52.576Z,12.84
2023-02-20T15:18:41.813Z,12.78
2023-02-20T15:21:08.415Z,12.74
2023-02-20T15:23:40.014Z,12.68
2023-02-20T15:26:29.942Z,12.67
2023-02-20T15:29:18.571Z,12.66
2023-02-20T15:31:46.155Z,12.61
2023-02-20T15:34:18.327Z,12.63
2023-02-20T15:36:44.827Z,12.56
2023-02-20T15:39:12.911Z,12.56
2023-02-20T15:41:40.173Z,12.53
2023-02-20T15:44:06.689Z,12.56
2023-02-20T15:46:33.228Z,12.52
2023-02-20T15:49:04.923Z,12.49
2023-02-20T15:51:34.410Z,12.48
2023-02-20T15:54:01.161Z,12.45
2023-02-20T15:56:30.959Z,12.43
2023-02-20T15:59:01.672Z,12.41
2023-02-20T16:01:28.301Z,12.45
2023-02-20T16:03:54.807Z,12.37
2023-02-20T16:06:22.837Z,12.37
2023-02-20T16:08:50.658Z,12.36
2023-02-20T16:11:19.052Z,12.33
2023-02-20T16:13:47.214Z,12.30
2023-02-20T16:16:24.616Z,12.27
2023-02-20T16:18:54.583Z,12.28
2023-02-20T16:21:23.150Z,12.20
2023-02-20T16:23:50.162Z,12.20
2023-02-20T16:26:18.089Z,12.23
2023-02-20T16:28:50.643Z,12.22
2023-02-20T16:31:17.459Z,12.20
2023-02-20T16:33:43.973Z,12.20
2023-02-20T16:36:16.613Z,12.22
2023-02-20T16:38:46.595Z,12.22
2023-02-20T16:41:13.369Z,12.20
2023-02-20T16:43:40.124Z,12.17
2023-02-20T16:46:06.942Z,12.19
2023-02-20T16:48:33.896Z,12.19
2023-02-20T16:51:00.515Z,12.18
2023-02-20T16:53:32.267Z,12.24
2023-02-20T16:55:58.680Z,12.16
2023-02-20T16:58:25.169Z,12.22
2023-02-20T17:00:57.467Z,12.32
2023-02-20T17:03:25.368Z,12.40
2023-02-20T17:05:58.525Z,12.41
2023-02-20T17:08:26.214Z,12.44
2023-02-20T17:10:52.819Z,12.42
2023-02-20T17:13:19.366Z,12.41
2023-02-20T17:15:47.754Z,12.40
2023-02-20T17:18:14.821Z,12.42
2023-02-20T17:20:41.958Z,12.41
2023-02-20T17:23:08.720Z,12.41
2023-02-20T17:25:35.355Z,12.37
2023-02-20T17:28:02.916Z,12.33
2023-02-20T17:30:29.456Z,12.32
2023-02-20T17:32:55.891Z,12.33
2023-02-20T17:35:22.551Z,12.29
2023-02-20T17:37:49.896Z,12.28
2023-02-20T17:40:17.064Z,12.24
2023-02-20T17:42:44.399Z,12.24
2023-02-20T17:45:11.083Z,12.22
2023-02-20T17:47:39.446Z,12.18
2023-02-20T17:50:06.604Z,12.15
2023-02-20T17:52:33.357Z,12.10
2023-02-20T17:54:59.933Z,12.05
2023-02-20T17:57:28.217Z,11.89
2023-02-20T17:59:54.727Z,11.85
2023-02-20T18:02:21.267Z,11.56
2023-02-20T18:04:47.752Z,11.40
2023-02-20T18:07:17.136Z,11.26
2023-02-20T18:09:43.603Z,11.02
2023-02-20T18:12:10.353Z,10.98
2023-02-20T18:14:36.889Z,10.83
2023-02-20T18:17:03.600Z,10.68
2023-02-20T18:19:30.239Z,10.57
2023-02-20T18:21:56.869Z,10.51
2023-02-20T18:24:25.230Z,10.51
2023-02-20T18:26:53.210Z,10.45
2023-02-20T18:29:20.984Z,10.44
2023-02-20T18:31:48.601Z,10.40
2023-02-20T18:34:15.508Z,10.36
2023-02-20T18:36:42.023Z,10.33
2023-02-20T18:39:09.878Z,10.29
2023-02-20T18:41:37.435Z,10.27
2023-02-20T18:44:04.241Z,10.23
2023-02-20T18:46:33.518Z,10.18
2023-02-20T18:49:00.906Z,10.16
2023-02-20T18:51:33.276Z,10.18
2023-02-20T18:54:00.400Z,10.19
2023-02-20T18:56:27.719Z,10.19
2023-02-20T18:58:54.689Z,10.17
2023-02-20T19:01:22.570Z,10.18
2023-02-20T19:03:51.070Z,10.20
2023-02-20T19:06:37.055Z,10.23
2023-02-20T19:09:04.214Z,10.25
2023-02-20T19:11:30.806Z,10.21
2023-02-20T19:13:57.604Z,10.16
2023-02-20T19:16:25.216Z,10.20
2023-02-20T19:18:51.986Z,10.24
2023-02-20T19:21:19.812Z,10.30
2023-02-20T19:23:47.024Z,10.36
2023-02-20T19:26:14.107Z,10.37
2023-02-20T19:28:42.249Z,10.44
2023-02-20T19:31:10.202Z,10.39
2023-02-20T19:33:36.767Z,10.39
2023-02-20T19:36:03.944Z,10.43
2023-02-20T19:38:30.498Z,10.44
2023-02-20T19:40:56.969Z,10.43
2023-02-20T19:43:23.648Z,10.34
2023-02-20T19:45:50.169Z,10.20
2023-02-20T19:48:16.720Z,10.08
2023-02-20T19:50:43.338Z,9.97
2023-02-20T19:53:10.073Z,9.91
2023-02-20T19:55:36.608Z,9.93
2023-02-20T19:58:03.148Z,10.03
2023-02-20T20:00:29.855Z,10.13
2023-02-20T20:02:58.317Z,10.19
2023-02-20T20:05:25.409Z,10.19
2023-02-20T20:07:52.195Z,10.24
2023-02-20T20:10:20.674Z,10.26
2023-02-20T20:12:47.380Z,10.29
2023-02-20T20:15:19.734Z,10.27
2023-02-20T20:17:47.591Z,10.30
2023-02-20T20:20:16.103Z,10.29
2023-02-20T20:22:42.955Z,10.29
2023-02-20T20:25:10.736Z,10.27
2023-02-20T20:27:37.611Z,10.26
2023-02-20T20:30:10.059Z,10.25
2023-02-20T20:32:36.570Z,10.13
2023-02-20T20:35:03.652Z,10.06
2023-02-20T20:37:30.154Z,10.02
2023-02-20T20:39:58.311Z,10.00
2023-02-20T20:42:27.445Z,10.00
2023-02-20T20:44:57.403Z,9.94
2023-02-20T20:47:25.282Z,9.91
2023-02-20T20:49:51.905Z,9.91
2023-02-20T20:52:19.794Z,9.86
2023-02-20T20:54:51.237Z,9.84
2023-02-20T20:57:19.261Z,9.86
2023-02-20T20:59:47.170Z,9.82
2023-02-20T21:02:18.352Z,9.85
2023-02-20T21:04:47.080Z,9.87
2023-02-20T21:07:14.458Z,9.90
2023-02-20T21:09:42.779Z,9.92
2023-02-20T21:12:10.949Z,9.91
2023-02-20T21:14:39.901Z,9.91
2023-02-20T21:17:07.480Z,9.89
2023-02-20T21:19:34.072Z,9.88
2023-02-20T21:22:00.731Z,9.92
2023-02-20T21:24:27.464Z,9.95
2023-02-20T21:26:53.994Z,10.00
2023-02-20T21:29:20.521Z,9.99
2023-02-20T21:31:47.671Z,10.01
2023-02-20T21:34:16.269Z,10.03
2023-02-20T21:36:43.889Z,10.04
2023-02-20T21:39:10.501Z,10.04
2023-02-20T21:41:55.623Z,10.08
2023-02-20T21:44:27.178Z,10.12
2023-02-20T21:46:59.034Z,10.10
2023-02-20T21:49:26.418Z,10.10
2023-02-20T21:51:53.243Z,10.13
2023-02-20T21:54:22.582Z,10.14
2023-02-20T21:56:49.242Z,10.15
2023-02-20T21:59:15.713Z,10.15
2023-02-20T22:01:42.480Z,10.14
2023-02-20T22:04:10.837Z,10.12
2023-02-20T22:06:37.443Z,10.10
2023-02-20T22:09:25.507Z,10.10
2023-02-20T22:12:10.615Z,10.09
2023-02-20T22:14:55.436Z,10.12
2023-02-20T22:17:41.452Z,10.09
2023-02-20T22:20:29.645Z,10.12
2023-02-20T22:23:14.766Z,10.11
2023-02-20T22:25:59.696Z,10.04
2023-02-20T22:28:44.925Z,10.06
2023-02-20T22:31:30.048Z,10.08
2023-02-20T22:34:15.783Z,10.02
2023-02-20T22:37:00.921Z,10.03
2023-02-20T22:39:46.130Z,10.02
2023-02-20T22:42:35.342Z,10.02
2023-02-20T22:45:21.175Z,9.98
2023-02-20T22:48:06.574Z,9.94
2023-02-20T22:50:51.383Z,9.97
2023-02-20T22:53:36.673Z,9.98
2023-02-20T22:56:22.549Z,10.03
2023-02-20T22:59:07.697Z,9.98
2023-02-20T23:01:52.856Z,9.99
2023-02-20T23:04:37.951Z,9.99
2023-02-20T23:07:22.882Z,9.98
2023-02-20T23:10:08.067Z,9.97
2023-02-20T23:12:53.015Z,10.01
2023-02-20T23:15:38.000Z,10.00
2023-02-20T23:18:23.339Z,9.97
2023-02-20T23:21:08.480Z,9.98
2023-02-20T23:23:53.554Z,10.00
2023-02-20T23:26:39.081Z,9.99
2023-02-20T23:29:24.042Z,10.02
2023-02-20T23:32:10.148Z,10.04
2023-02-20T23:34:55.537Z,10.02
2023-02-20T23:37:40.912Z,10.03
2023-02-20T23:40:35.998Z,10.00
2023-02-20T23:43:23.695Z,10.03
2023-02-20T23:46:09.414Z,9.99
2023-02-20T23:48:54.978Z,9.95
2023-02-20T23:51:39.902Z,9.95
2023-02-20T23:54:24.727Z,9.98
2023-02-20T23:57:10.226Z,9.97
2023-02-20T23:59:55.593Z,9.97
